createdAt,value
2022-08-08T00:00:54.006Z,5.20
2022-08-08T00:03:31.657Z,6.18
2022-08-08T00:06:28.752Z,5.50
2022-08-08T00:09:21.943Z,5.55
2022-08-08T00:12:07.134Z,8.00
2022-08-08T00:15:00.632Z,7.07
2022-08-08T00:18:02.360Z,5.65
2022-08-08T00:20:41.007Z,7.47
2022-08-08T00:23:14.737Z,5.53
2022-08-08T00:25:51.378Z,7.53
2022-08-08T00:28:35.788Z,5.60
2022-08-08T00:32:15.624Z,7.32
2022-08-08T00:34:58.453Z,6.63
2022-08-08T00:37:47.348Z,5.43
2022-08-08T00:41:12.221Z,7.88
2022-08-08T00:43:40.939Z,6.78
2022-08-08T00:49:22.576Z,6.47
2022-08-08T00:51:57.183Z,7.15
2022-08-08T00:54:45.767Z,5.45
2022-08-08T00:58:13.675Z,7.75
2022-08-08T01:01:10.838Z,9.43
2022-08-08T01:04:15.382Z,5.10
2022-08-08T01:07:01.951Z,7.22
2022-08-08T01:10:08.347Z,6.40
2022-08-08T01:13:14.966Z,6.70
2022-08-08T01:16:27.931Z,8.88
2022-08-08T01:20:01.213Z,7.32
2022-08-08T01:22:55.976Z,4.32
2022-08-08T01:25:44.376Z,7.35
2022-08-08T01:28:51.350Z,8.88
2022-08-08T01:32:06.471Z,6.38
2022-08-08T01:34:29.034Z,7.80
2022-08-08T01:37:57.896Z,6.38
2022-08-08T01:40:47.344Z,6.43
2022-08-08T01:43:38.475Z,5.93
2022-08-08T01:46:52.606Z,7.43
2022-08-08T01:49:45.044Z,8.18
2022-08-08T01:54:01.576Z,6.28
2022-08-08T01:56:27.602Z,9.93
2022-08-08T01:58:38.417Z,8.27
2022-08-08T02:02:00.153Z,7.95
2022-08-08T02:04:53.544Z,6.03
2022-08-08T02:08:01.520Z,6.57
2022-08-08T02:10:47.839Z,6.57
2022-08-08T02:13:54.671Z,7.68
2022-08-08T02:16:22.715Z,6.82
2022-08-08T02:19:41.812Z,10.05
2022-08-08T02:22:34.171Z,7.90
2022-08-08T02:25:32.719Z,7.57
2022-08-08T02:28:19.866Z,7.38
2022-08-08T02:31:01.764Z,7.03
2022-08-08T02:51:55.183Z,7.28
2022-08-08T02:54:54.683Z,8.25
2022-08-08T02:57:45.638Z,7.72
2022-08-08T03:00:47.130Z,8.93
2022-08-08T03:05:01.288Z,8.15
2022-08-08T03:06:52.221Z,10.63
2022-08-08T03:09:54.685Z,9.30
2022-08-08T03:13:07.383Z,10.05
2022-08-08T03:16:10.476Z,10.30
2022-08-08T03:18:49.594Z,7.87
2022-08-08T03:21:27.109Z,7.13
2022-08-08T03:24:08.016Z,9.65
2022-08-08T03:26:42.258Z,9.20
2022-08-08T03:29:26.963Z,7.07
2022-08-08T03:32:28.990Z,8.73
2022-08-08T03:34:57.996Z,9.13
2022-08-08T03:38:52.826Z,11.15
2022-08-08T03:40:29.460Z,9.43
2022-08-08T03:43:16.433Z,9.07
2022-08-08T03:46:04.885Z,6.38
2022-08-08T03:49:56.395Z,8.52
2022-08-08T03:51:40.312Z,8.88
2022-08-08T03:54:09.993Z,10.30
2022-08-08T03:56:43.537Z,9.63
2022-08-08T03:59:23.151Z,12.43
2022-08-08T04:02:31.493Z,10.02
2022-08-08T04:04:41.666Z,9.27
2022-08-08T04:07:09.405Z,15.05
2022-08-08T04:09:59.057Z,8.88
2022-08-08T04:12:27.296Z,10.82
2022-08-08T04:14:54.883Z,12.20
2022-08-08T04:17:57.977Z,8.10
2022-08-08T04:20:11.082Z,9.75
2022-08-08T04:22:38.764Z,13.88
2022-08-08T04:25:08.563Z,12.15
2022-08-08T04:28:34.928Z,9.00
2022-08-08T04:30:29.987Z,7.95
2022-08-08T04:33:04.391Z,8.40
2022-08-08T04:35:39.840Z,10.70
2022-08-08T04:38:10.576Z,12.68
2022-08-08T04:40:53.382Z,13.45
2022-08-08T04:43:32.471Z,15.70
2022-08-08T04:46:11.936Z,12.93
2022-08-08T04:48:42.184Z,18.83
2022-08-08T04:51:10.491Z,11.98
2022-08-08T04:54:37.252Z,9.60
2022-08-08T04:56:25.048Z,15.02
2022-08-08T04:58:53.250Z,18.85
2022-08-08T05:01:21.052Z,17.98
2022-08-08T05:04:08.454Z,19.08
2022-08-08T05:06:42.303Z,20.25
2022-08-08T05:09:10.952Z,14.38
2022-08-08T05:11:41.436Z,12.50
2022-08-08T05:14:14.161Z,13.55
2022-08-08T05:16:51.793Z,11.55
2022-08-08T05:20:11.365Z,11.80
2022-08-08T05:22:17.422Z,12.55
2022-08-08T05:24:49.417Z,11.68
2022-08-08T05:27:20.114Z,14.50
2022-08-08T05:29:50.406Z,21.85
2022-08-08T05:32:24.761Z,17.58
2022-08-08T05:35:01.585Z,13.05
2022-08-08T05:37:49.306Z,11.98
2022-08-08T05:40:27.585Z,12.27
2022-08-08T05:43:03.384Z,10.82
2022-08-08T05:45:55.155Z,13.50
2022-08-08T05:48:34.600Z,14.60
2022-08-08T05:51:13.240Z,12.85
2022-08-08T05:54:24.229Z,15.48
2022-08-08T05:56:42.390Z,14.23
2022-08-08T05:59:58.801Z,16.02
2022-08-08T06:02:40.687Z,12.38
2022-08-08T06:05:33.542Z,11.68
2022-08-08T06:08:10.263Z,14.53
2022-08-08T06:10:55.086Z,16.80
2022-08-08T06:13:23.969Z,10.15
2022-08-08T06:15:55.423Z,15.30
2022-08-08T06:18:36.533Z,12.10
2022-08-08T06:21:11.464Z,13.70
2022-08-08T06:24:02.306Z,17.05
2022-08-08T06:26:50.537Z,17.30
2022-08-08T06:30:07.328Z,17.48
2022-08-08T06:32:50.223Z,16.85
2022-08-08T06:36:04.287Z,14.77
2022-08-08T06:38:16.640Z,14.02
2022-08-08T06:40:53.761Z,16.13
2022-08-08T06:43:34.064Z,19.48
2022-08-08T06:46:12.921Z,16.80
2022-08-08T06:48:42.726Z,12.63
2022-08-08T06:51:14.507Z,15.95
2022-08-08T06:53:51.275Z,14.93
2022-08-08T06:56:33.079Z,16.10
2022-08-08T06:59:01.906Z,18.85
2022-08-08T07:02:26.636Z,16.38
2022-08-08T07:05:11.990Z,15.43
2022-08-08T07:07:55.483Z,13.98
2022-08-08T07:10:33.275Z,14.20
2022-08-08T07:13:25.125Z,17.38
2022-08-08T07:16:13.646Z,19.17
2022-08-08T07:19:10.722Z,14.48
2022-08-08T07:22:18.652Z,15.00
2022-08-08T07:24:55.163Z,14.70
2022-08-08T07:27:35.091Z,14.23
2022-08-08T07:30:25.410Z,14.52
2022-08-08T07:32:59.578Z,14.40
2022-08-08T07:35:30.742Z,18.80
2022-08-08T07:38:10.589Z,12.63
2022-08-08T07:40:59.192Z,14.65
2022-08-08T07:43:37.046Z,14.52
2022-08-08T07:46:24.068Z,10.43
2022-08-08T07:49:00.069Z,13.02
2022-08-08T07:51:52.896Z,9.68
2022-08-08T07:54:35.458Z,11.45
2022-08-08T07:57:21.219Z,7.57
2022-08-08T08:00:05.505Z,11.23
2022-08-08T08:03:08.669Z,8.48
2022-08-08T08:05:50.783Z,8.60
2022-08-08T08:08:59.659Z,7.75
2022-08-08T08:11:51.211Z,8.20
2022-08-08T08:15:04.398Z,8.95
2022-08-08T08:17:47.538Z,6.22
2022-08-08T08:20:19.308Z,8.95
2022-08-08T08:22:49.768Z,7.90
2022-08-08T08:25:19.394Z,6.70
2022-08-08T08:28:04.390Z,8.45
2022-08-08T08:33:05.547Z,6.75
2022-08-08T08:36:17.959Z,7.13
2022-08-08T08:38:29.155Z,7.78
2022-08-08T08:41:16.821Z,8.40
2022-08-08T08:43:50.507Z,5.05
2022-08-08T08:46:25.948Z,6.53
2022-08-08T08:48:56.567Z,6.07
2022-08-08T08:51:27.046Z,7.18
2022-08-08T08:54:02.409Z,5.57
2022-08-08T08:56:42.064Z,5.95
2022-08-08T08:59:19.677Z,8.90
2022-08-08T09:01:56.445Z,8.68
2022-08-08T09:04:38.568Z,6.22
2022-08-08T09:07:23.715Z,5.88
2022-08-08T09:10:13.797Z,6.57
2022-08-08T09:12:47.547Z,5.28
2022-08-08T09:15:24.201Z,9.20
2022-08-08T09:18:06.096Z,6.72
2022-08-08T09:22:00.135Z,4.88
2022-08-08T09:23:25.307Z,6.18
2022-08-08T09:26:21.536Z,5.93
2022-08-08T09:28:51.710Z,4.95
2022-08-08T09:31:56.711Z,7.28
2022-08-08T09:34:34.541Z,6.30
2022-08-08T09:37:46.219Z,3.50
2022-08-08T09:40:10.602Z,4.55
2022-08-08T09:42:51.590Z,8.48
2022-08-08T09:45:54.909Z,6.03
2022-08-08T09:48:23.645Z,9.73
2022-08-08T09:51:05.149Z,6.13
2022-08-08T09:53:56.516Z,10.43
2022-08-08T09:56:40.963Z,5.72
2022-08-08T09:59:40.410Z,7.55
2022-08-08T10:02:12.363Z,7.57
2022-08-08T10:04:47.323Z,8.10
2022-08-08T10:07:17.592Z,4.28
2022-08-08T10:09:59.578Z,6.68
2022-08-08T10:12:53.382Z,5.28
2022-08-08T10:15:27.804Z,3.78
2022-08-08T10:20:57.912Z,8.13
2022-08-08T10:23:46.068Z,2.83
2022-08-08T10:26:57.374Z,6.63
2022-08-08T10:29:58.339Z,5.25
2022-08-08T10:32:40.273Z,7.25
2022-08-08T10:36:06.232Z,4.57
2022-08-08T10:38:08.307Z,6.43
2022-08-08T10:40:38.286Z,7.93
2022-08-08T10:43:06.892Z,4.28
2022-08-08T10:45:55.719Z,3.83
2022-08-08T10:48:58.362Z,4.53
2022-08-08T10:51:31.123Z,4.68
2022-08-08T10:54:00.105Z,4.13
2022-08-08T10:56:36.208Z,2.75
2022-08-08T10:59:08.275Z,4.13
2022-08-08T11:01:37.651Z,4.70
2022-08-08T11:04:10.594Z,6.82
2022-08-08T11:06:41.935Z,4.10
2022-08-08T11:09:21.178Z,5.85
2022-08-08T11:12:04.717Z,3.67
2022-08-08T11:14:54.293Z,4.97
2022-08-08T11:17:59.764Z,4.50
2022-08-08T11:20:27.944Z,3.40
2022-08-08T11:22:56.627Z,3.42
2022-08-08T11:25:53.448Z,5.32
2022-08-08T11:28:25.813Z,4.32
2022-08-08T11:31:00.279Z,5.65
2022-08-08T11:33:53.578Z,2.75
2022-08-08T11:36:16.524Z,5.63
2022-08-08T11:38:54.194Z,4.72
2022-08-08T11:41:28.032Z,2.85
2022-08-08T11:44:01.322Z,2.95
2022-08-08T11:46:31.423Z,2.47
2022-08-08T11:49:00.226Z,3.92
2022-08-08T11:51:38.897Z,2.90
2022-08-08T11:54:09.876Z,4.38
2022-08-08T11:56:56.397Z,4.28
2022-08-08T12:00:01.122Z,3.00
2022-08-08T12:02:41.507Z,3.42
2022-08-08T12:05:12.542Z,2.05
2022-08-08T12:07:49.662Z,4.97
2022-08-08T12:10:21.242Z,5.55
2022-08-08T12:12:49.361Z,3.00
2022-08-08T12:15:42.704Z,4.32
2022-08-08T12:18:20.989Z,4.10
2022-08-08T12:20:50.137Z,2.55
2022-08-08T12:23:43.948Z,6.75
2022-08-08T12:26:28.181Z,3.80
2022-08-08T12:29:19.224Z,4.53
2022-08-08T12:31:53.510Z,4.90
2022-08-08T12:34:36.755Z,5.45
2022-08-08T12:37:08.181Z,3.67
2022-08-08T12:40:01.106Z,6.97
2022-08-08T12:42:33.901Z,1.88
2022-08-08T12:45:57.986Z,3.22
2022-08-08T12:48:10.601Z,5.10
2022-08-08T12:50:57.563Z,3.13
2022-08-08T12:56:18.726Z,5.97
2022-08-08T12:58:50.796Z,2.85
2022-08-08T13:01:24.784Z,2.47
2022-08-08T13:04:18.342Z,7.03
2022-08-08T13:07:05.115Z,4.45
2022-08-08T13:10:04.875Z,1.35
2022-08-08T13:12:38.649Z,2.53
2022-08-08T13:15:13.656Z,2.75
2022-08-08T13:18:07.608Z,2.63
2022-08-08T13:20:28.891Z,4.03
2022-08-08T13:23:30.123Z,1.92
2022-08-08T13:25:50.405Z,3.72
2022-08-08T13:28:31.880Z,2.50
2022-08-08T13:31:01.826Z,1.67
2022-08-08T13:33:42.328Z,2.92
2022-08-08T13:36:10.845Z,2.35
2022-08-08T13:38:39.771Z,1.42
2022-08-08T13:41:16.697Z,3.88
2022-08-08T13:43:50.785Z,4.32
2022-08-08T13:46:26.763Z,2.30
2022-08-08T13:49:12.077Z,2.92
2022-08-08T13:51:55.164Z,2.78
2022-08-08T13:54:29.259Z,2.78
2022-08-08T13:57:04.284Z,5.15
2022-08-08T13:59:47.900Z,3.63
2022-08-08T14:02:31.058Z,3.50
2022-08-08T14:05:19.851Z,4.13
2022-08-08T14:07:52.006Z,1.27
2022-08-08T14:10:33.533Z,5.68
2022-08-08T14:13:20.762Z,4.70
2022-08-08T14:16:16.234Z,1.92
2022-08-08T14:19:10.682Z,4.88
2022-08-08T14:21:51.829Z,4.25
2022-08-08T14:24:34.007Z,1.83
2022-08-08T14:27:01.714Z,1.83
2022-08-08T14:29:30.780Z,2.53
2022-08-08T14:32:08.838Z,3.63
2022-08-08T14:34:38.163Z,3.38
2022-08-08T14:37:08.594Z,4.07
2022-08-08T14:40:05.805Z,2.00
2022-08-08T14:42:54.462Z,5.57
2022-08-08T14:45:33.525Z,3.30
2022-08-08T14:48:12.590Z,5.10
2022-08-08T14:50:43.875Z,4.90
2022-08-08T14:53:14.443Z,4.30
2022-08-08T14:55:42.907Z,4.97
2022-08-08T14:58:12.149Z,1.33
2022-08-08T15:00:45.818Z,4.57
2022-08-08T15:03:17.263Z,3.53
2022-08-08T15:05:54.664Z,5.20
2022-08-08T15:08:35.186Z,2.50
2022-08-08T15:11:18.973Z,2.67
2022-08-08T15:16:34.563Z,3.97
2022-08-08T15:19:03.065Z,1.25
2022-08-08T15:21:30.675Z,2.33
2022-08-08T15:23:58.008Z,2.00
2022-08-08T15:26:29.020Z,5.80
2022-08-08T15:28:57.121Z,4.37
2022-08-08T15:31:55.914Z,4.28
2022-08-08T15:34:28.876Z,3.05
2022-08-08T15:37:02.185Z,2.42
2022-08-08T15:42:10.508Z,5.32
2022-08-08T15:44:42.063Z,1.75
2022-08-08T15:47:15.384Z,3.80
2022-08-08T15:49:47.794Z,6.10
2022-08-08T15:52:17.543Z,4.57
2022-08-08T15:54:47.913Z,2.15
2022-08-08T15:57:19.151Z,5.30
2022-08-08T16:00:05.427Z,2.10
2022-08-08T16:02:50.177Z,4.05
2022-08-08T16:05:23.601Z,1.90
2022-08-08T16:07:53.872Z,1.55
2022-08-08T16:13:07.229Z,1.63
2022-08-08T16:13:34.594Z,2.00
2022-08-08T16:16:09.012Z,3.80
2022-08-08T16:18:37.266Z,2.42
2022-08-08T16:21:06.010Z,2.70
2022-08-08T16:23:55.399Z,3.63
2022-08-08T16:26:32.776Z,1.42
2022-08-08T16:29:01.325Z,1.27
2022-08-08T16:31:30.411Z,3.00
2022-08-08T16:33:59.426Z,1.65
2022-08-08T16:36:33.884Z,3.47
2022-08-08T16:39:16.904Z,1.42
2022-08-08T16:41:51.093Z,3.80
2022-08-08T16:44:28.168Z,3.38
2022-08-08T16:47:21.878Z,2.13
2022-08-08T16:50:01.436Z,2.42
2022-08-08T16:55:42.379Z,3.75
2022-08-08T16:58:15.552Z,1.88
2022-08-08T17:00:49.223Z,1.63
2022-08-08T17:03:25.489Z,3.95
2022-08-08T17:06:35.514Z,2.20
2022-08-08T17:08:55.347Z,4.00
2022-08-08T17:11:28.474Z,1.70
2022-08-08T17:14:11.679Z,4.60
2022-08-08T17:16:57.602Z,2.85
2022-08-08T17:19:29.865Z,2.95
2022-08-08T17:21:57.886Z,2.63
2022-08-08T17:24:30.172Z,2.60
2022-08-08T17:26:59.161Z,1.58
2022-08-08T17:29:27.475Z,2.67
2022-08-08T17:31:57.703Z,2.75
2022-08-08T17:34:48.506Z,4.68
2022-08-08T17:37:13.723Z,2.58
2022-08-08T17:40:03.062Z,2.75
2022-08-08T17:42:32.520Z,1.92
2022-08-08T17:45:00.249Z,0.70
2022-08-08T17:47:40.249Z,2.17
2022-08-08T17:50:09.044Z,2.45
2022-08-08T17:52:38.222Z,2.97
2022-08-08T17:56:04.713Z,1.73
2022-08-08T17:57:53.558Z,4.13
2022-08-08T18:00:25.843Z,3.55
2022-08-08T18:03:08.253Z,1.00
2022-08-08T18:05:47.864Z,2.35
2022-08-08T18:08:25.101Z,2.10
2022-08-08T18:11:15.475Z,3.70
2022-08-08T18:13:45.574Z,3.53
2022-08-08T18:16:17.310Z,3.72
2022-08-08T18:18:53.777Z,4.72
2022-08-08T18:22:00.109Z,4.07
2022-08-08T18:24:18.912Z,2.55
2022-08-08T18:26:53.857Z,2.92
2022-08-08T18:29:41.384Z,2.60
2022-08-08T18:32:09.739Z,4.35
2022-08-08T18:34:40.357Z,2.25
2022-08-08T18:37:10.385Z,1.98
2022-08-08T18:39:57.549Z,2.63
2022-08-08T18:42:24.646Z,3.65
2022-08-08T18:44:55.014Z,1.30
2022-08-08T18:47:25.068Z,3.75
2022-08-08T18:49:58.356Z,2.22
2022-08-08T18:52:27.683Z,6.68
2022-08-08T18:55:00.588Z,4.35
2022-08-08T18:57:41.063Z,3.13
2022-08-08T19:00:20.625Z,4.10
2022-08-08T19:02:55.746Z,3.83
2022-08-08T19:05:32.226Z,2.85
2022-08-08T19:08:25.621Z,3.20
2022-08-08T19:10:56.978Z,4.20
2022-08-08T19:13:24.433Z,2.92
2022-08-08T19:15:55.975Z,3.13
2022-08-08T19:18:31.796Z,6.57
2022-08-08T19:21:02.439Z,1.73
2022-08-08T19:23:29.401Z,3.85
2022-08-08T19:26:28.961Z,1.80
2022-08-08T19:28:49.692Z,1.90
2022-08-08T19:31:17.145Z,4.60
2022-08-08T19:33:51.916Z,1.17
2022-08-08T19:36:31.889Z,4.50
2022-08-08T19:38:59.571Z,4.28
2022-08-08T19:41:33.697Z,4.32
2022-08-08T19:44:03.856Z,5.13
2022-08-08T19:46:33.450Z,2.05
2022-08-08T19:49:03.167Z,2.13
2022-08-08T19:51:34.284Z,2.95
2022-08-08T19:54:02.261Z,4.65
2022-08-08T19:56:39.857Z,4.93
2022-08-08T19:59:15.232Z,2.38
2022-08-08T20:02:01.544Z,1.88
2022-08-08T20:04:31.421Z,4.00
2022-08-08T20:07:03.664Z,1.92
2022-08-08T20:09:56.036Z,5.90
2022-08-08T20:12:32.105Z,4.00
2022-08-08T20:15:14.893Z,2.72
2022-08-08T20:17:46.927Z,3.13
2022-08-08T20:20:19.303Z,3.45
2022-08-08T20:22:52.564Z,3.53
2022-08-08T20:25:21.948Z,5.32
2022-08-08T20:27:51.836Z,3.25
2022-08-08T20:30:53.554Z,3.72
2022-08-08T20:33:19.951Z,5.57
2022-08-08T20:35:57.533Z,6.50
2022-08-08T20:38:32.867Z,5.15
2022-08-08T20:41:05.879Z,4.55
2022-08-08T20:43:49.341Z,2.83
2022-08-08T20:46:25.476Z,2.58
2022-08-08T20:48:58.307Z,3.53
2022-08-08T20:51:27.155Z,4.57
2022-08-08T20:54:09.441Z,3.35
2022-08-08T20:57:04.831Z,3.20
2022-08-08T20:59:26.268Z,2.08
2022-08-08T21:02:06.488Z,7.22
2022-08-08T21:04:36.658Z,6.18
2022-08-08T21:07:08.241Z,4.88
2022-08-08T21:10:02.367Z,5.45
2022-08-08T21:12:32.277Z,4.20
2022-08-08T21:15:06.943Z,5.82
2022-08-08T21:17:35.375Z,3.53
2022-08-08T21:20:04.600Z,2.83
2022-08-08T21:22:31.669Z,7.68
2022-08-08T21:24:58.977Z,5.13
2022-08-08T21:28:06.581Z,1.80
2022-08-08T21:30:18.701Z,4.25
2022-08-08T21:32:52.028Z,3.55
2022-08-08T21:36:17.625Z,2.58
2022-08-08T21:38:16.152Z,4.53
2022-08-08T21:40:55.026Z,2.42
2022-08-08T21:43:25.339Z,3.67
2022-08-08T21:48:07.003Z,5.20
2022-08-08T21:48:41.268Z,4.10
2022-08-08T21:51:11.844Z,3.22
2022-08-08T21:54:32.787Z,5.05
2022-08-08T21:56:36.099Z,4.50
2022-08-08T21:59:09.955Z,1.48
2022-08-08T22:01:39.207Z,3.45
2022-08-08T22:04:11.115Z,1.85
2022-08-08T22:06:40.515Z,2.60
2022-08-08T22:09:09.659Z,3.03
2022-08-08T22:11:48.178Z,3.72
2022-08-08T22:14:26.665Z,3.15
2022-08-08T22:16:54.830Z,4.93
2022-08-08T22:19:24.120Z,1.95
2022-08-08T22:21:54.661Z,2.47
2022-08-08T22:24:23.935Z,2.88
2022-08-08T22:27:01.423Z,3.53
2022-08-08T22:30:01.893Z,2.22
2022-08-08T22:32:18.894Z,2.92
2022-08-08T22:34:50.835Z,1.95
2022-08-08T22:37:48.924Z,4.50
2022-08-08T22:40:12.022Z,5.22
2022-08-08T22:42:47.412Z,4.68
2022-08-08T22:45:15.792Z,2.28
2022-08-08T22:47:48.934Z,4.70
2022-08-08T22:50:27.164Z,5.50
2022-08-08T22:54:19.592Z,1.95
2022-08-08T22:55:58.168Z,4.10
2022-08-08T22:58:34.482Z,4.65
2022-08-08T23:01:30.564Z,3.17
2022-08-08T23:03:53.162Z,2.65
2022-08-08T23:06:21.998Z,1.85
2022-08-08T23:08:54.785Z,6.95
2022-08-08T23:12:17.363Z,7.85
2022-08-08T23:14:19.647Z,3.10
2022-08-08T23:16:56.105Z,3.65
2022-08-08T23:19:30.735Z,2.33
2022-08-08T23:22:01.419Z,4.93
2022-08-08T23:24:36.313Z,6.88
2022-08-08T23:27:05.937Z,3.28
2022-08-08T23:29:33.578Z,2.55
2022-08-08T23:32:01.889Z,2.28
2022-08-08T23:34:32.100Z,1.98
2022-08-08T23:37:00.761Z,2.50
2022-08-08T23:39:42.131Z,2.17
2022-08-08T23:42:17.409Z,2.70
2022-08-08T23:44:48.752Z,1.23
2022-08-08T23:49:01.454Z,5.00
2022-08-08T23:50:02.919Z,2.92
2022-08-08T23:52:31.155Z,2.30
2022-08-08T23:55:07.335Z,2.72
2022-08-08T23:57:52.720Z,3.38
